createdAt,value
2024-05-09T00:02:14.986Z,8.60
2024-05-09T00:05:16.552Z,7.40
2024-05-09T00:08:18.312Z,7.70
2024-05-09T00:11:22.336Z,7.50
2024-05-09T00:14:23.959Z,7.80
2024-05-09T00:17:25.911Z,7.20
2024-05-09T00:20:35.991Z,7.70
2024-05-09T00:23:44.191Z,7.40
2024-05-09T00:26:45.716Z,7.70
2024-05-09T00:32:48.681Z,7.40
2024-05-09T00:35:59.072Z,7.50
2024-05-09T00:42:11.919Z,7.50
2024-05-09T00:45:13.564Z,7.50
2024-05-09T00:48:19.640Z,7.50
2024-05-09T00:51:22.929Z,7.30
2024-05-09T00:54:25.173Z,7.80
2024-05-09T00:57:26.815Z,8.30
2024-05-09T01:00:35.724Z,7.70
2024-05-09T01:03:44.837Z,8.00
2024-05-09T01:06:47.817Z,7.70
2024-05-09T01:09:49.273Z,7.70
2024-05-09T01:12:50.927Z,7.30
2024-05-09T01:15:53.012Z,7.40
2024-05-09T01:18:55.541Z,7.20
2024-05-09T01:21:59.561Z,7.00
2024-05-09T01:25:01.037Z,6.70
2024-05-09T01:28:02.619Z,7.20
2024-05-09T01:31:04.411Z,8.00
2024-05-09T01:34:09.136Z,7.70
2024-05-09T01:37:10.800Z,7.50
2024-05-09T01:43:26.526Z,7.50
2024-05-09T01:46:28.184Z,8.10
2024-05-09T01:49:35.229Z,6.90
2024-05-09T01:52:36.942Z,7.90
2024-05-09T02:01:56.111Z,7.10
2024-05-09T02:04:59.198Z,7.50
2024-05-09T02:08:14.975Z,7.60
2024-05-09T02:11:28.226Z,6.80
2024-05-09T02:14:29.720Z,6.80
2024-05-09T02:20:47.714Z,7.50
2024-05-09T02:23:49.199Z,8.30
2024-05-09T02:26:55.870Z,7.80
2024-05-09T02:30:12.099Z,8.80
2024-05-09T02:33:16.914Z,9.30
2024-05-09T02:36:38.943Z,8.00
2024-05-09T02:39:40.527Z,7.80
2024-05-09T02:42:45.169Z,7.70
2024-05-09T02:45:49.651Z,7.60
2024-05-09T02:49:03.518Z,7.60
2024-05-09T02:52:07.653Z,6.80
2024-05-09T02:55:26.475Z,7.60
2024-05-09T02:58:48.259Z,7.40
2024-05-09T03:05:04.657Z,7.00
2024-05-09T03:08:08.878Z,7.20
2024-05-09T03:11:43.398Z,6.10
2024-05-09T03:14:50.060Z,6.50
2024-05-09T03:17:53.961Z,7.40
2024-05-09T03:21:11.540Z,7.90
2024-05-09T03:24:28.442Z,8.10
2024-05-09T03:27:42.258Z,7.20
2024-05-09T03:30:56.101Z,7.50
2024-05-09T03:34:03.229Z,7.90
2024-05-09T03:37:14.413Z,6.60
2024-05-09T03:40:21.046Z,7.90
2024-05-09T03:46:37.675Z,8.30
2024-05-09T03:49:39.393Z,7.90
2024-05-09T03:52:41.046Z,7.20
2024-05-09T03:58:47.079Z,6.90
2024-05-09T04:01:48.839Z,7.30
2024-05-09T04:04:50.899Z,7.90
2024-05-09T04:08:04.836Z,7.40
2024-05-09T04:11:06.651Z,7.60
2024-05-09T04:14:08.468Z,8.20
2024-05-09T04:17:10.023Z,8.50
2024-05-09T04:23:30.740Z,7.70
2024-05-09T04:26:40.006Z,7.90
2024-05-09T04:29:41.441Z,7.90
2024-05-09T04:32:43.085Z,8.00
2024-05-09T04:35:45.382Z,7.60
2024-05-09T04:38:47.128Z,8.00
2024-05-09T04:44:49.963Z,7.10
2024-05-09T04:47:51.877Z,8.00
2024-05-09T04:50:53.883Z,7.20
2024-05-09T04:53:55.348Z,7.50
2024-05-09T04:56:56.920Z,7.00
2024-05-09T04:59:58.302Z,7.40
2024-05-09T05:02:59.919Z,7.10
2024-05-09T05:06:01.754Z,6.50
2024-05-09T05:09:03.374Z,6.10
2024-05-09T05:12:05.181Z,6.80
2024-05-09T05:15:07.186Z,6.50
2024-05-09T05:18:08.867Z,6.40
2024-05-09T05:21:13.307Z,6.30
2024-05-09T05:24:14.703Z,6.60
2024-05-09T05:27:16.316Z,6.10
2024-05-09T05:30:24.753Z,6.00
2024-05-09T05:33:30.384Z,6.10
2024-05-09T05:36:31.912Z,6.50
2024-05-09T05:39:33.260Z,5.70
2024-05-09T05:42:34.596Z,6.10
2024-05-09T05:45:36.284Z,6.10
2024-05-09T05:48:37.838Z,6.50
2024-05-09T05:51:39.277Z,5.60
2024-05-09T05:54:40.646Z,5.60
2024-05-09T05:57:42.046Z,5.50
2024-05-09T06:00:43.534Z,5.70
2024-05-09T06:03:45.066Z,5.30
2024-05-09T06:06:46.523Z,5.70
2024-05-09T06:09:49.952Z,5.50
2024-05-09T06:12:51.788Z,5.50
2024-05-09T06:15:53.138Z,5.30
2024-05-09T06:18:54.693Z,5.00
2024-05-09T06:21:56.264Z,5.30
2024-05-09T06:24:57.686Z,5.30
2024-05-09T06:28:00.620Z,5.00
2024-05-09T06:31:02.932Z,4.90
2024-05-09T06:34:04.407Z,5.50
2024-05-09T06:37:05.942Z,4.90
2024-05-09T06:40:09.874Z,5.20
2024-05-09T06:43:12.727Z,5.00
2024-05-09T06:46:14.118Z,4.90
2024-05-09T06:49:15.768Z,4.90
2024-05-09T06:52:17.536Z,5.00
2024-05-09T06:55:18.898Z,4.80
2024-05-09T06:58:20.367Z,5.50
2024-05-09T07:01:21.727Z,5.00
2024-05-09T07:04:23.288Z,4.80
2024-05-09T07:07:24.794Z,4.80
2024-05-09T07:10:32.793Z,4.90
2024-05-09T07:13:36.637Z,5.20
2024-05-09T07:16:37.990Z,5.00
2024-05-09T07:19:39.414Z,5.00
2024-05-09T07:22:40.955Z,5.00
2024-05-09T07:25:42.461Z,5.00
2024-05-09T07:28:43.798Z,4.80
2024-05-09T07:31:45.385Z,5.10
2024-05-09T07:34:46.782Z,4.80
2024-05-09T07:37:48.271Z,4.70
2024-05-09T07:40:49.800Z,4.70
2024-05-09T07:43:51.206Z,4.90
2024-05-09T07:48:13.637Z,4.80
2024-05-09T07:53:38.191Z,4.70
2024-05-09T07:56:39.931Z,4.80
2024-05-09T07:59:41.554Z,4.90
2024-05-09T08:02:42.900Z,4.60
2024-05-09T08:05:44.381Z,5.20
2024-05-09T08:08:46.501Z,4.70
2024-05-09T08:11:50.457Z,4.90
2024-05-09T08:14:51.854Z,4.60
2024-05-09T08:17:53.270Z,4.50
2024-05-09T08:20:54.675Z,4.20
2024-05-09T08:23:56.074Z,4.20
2024-05-09T08:26:57.454Z,4.40
2024-05-09T08:29:58.833Z,4.10
2024-05-09T08:33:00.352Z,4.00
2024-05-09T08:36:01.833Z,4.10
2024-05-09T08:39:03.302Z,4.00
2024-05-09T08:42:05.965Z,4.10
2024-05-09T08:45:08.098Z,4.10
2024-05-09T08:48:10.002Z,4.00
2024-05-09T08:51:13.402Z,4.00
2024-05-09T08:54:14.781Z,4.10
2024-05-09T08:57:16.741Z,4.00
2024-05-09T09:00:29.058Z,3.80
2024-05-09T09:03:36.574Z,3.50
2024-05-09T09:06:38.672Z,3.70
2024-05-09T09:09:42.321Z,3.50
2024-05-09T09:12:44.327Z,3.50
2024-05-09T09:15:47.364Z,3.70
2024-05-09T09:18:48.881Z,3.80
2024-05-09T09:21:50.602Z,3.90
2024-05-09T09:24:52.020Z,3.50
2024-05-09T09:27:53.502Z,3.10
2024-05-09T09:31:01.197Z,3.60
2024-05-09T09:34:07.415Z,3.60
2024-05-09T09:37:10.802Z,3.20
2024-05-09T09:43:21.073Z,3.70
2024-05-09T09:46:23.241Z,3.50
2024-05-09T09:49:29.981Z,3.70
2024-05-09T09:52:31.618Z,3.50
2024-05-09T09:55:33.509Z,3.60
2024-05-09T09:58:35.598Z,3.50
2024-05-09T10:01:37.155Z,3.40
2024-05-09T10:04:38.797Z,3.30
2024-05-09T10:07:41.646Z,3.60
2024-05-09T10:10:46.843Z,3.70
2024-05-09T10:13:51.234Z,3.30
2024-05-09T10:16:52.664Z,3.40
2024-05-09T10:20:11.696Z,3.60
2024-05-09T10:23:29.998Z,3.50
2024-05-09T10:26:31.379Z,3.60
2024-05-09T10:29:32.741Z,3.50
2024-05-09T10:32:38.898Z,3.50
2024-05-09T10:35:50.986Z,3.30
2024-05-09T10:38:53.791Z,3.10
2024-05-09T10:41:55.129Z,3.40
2024-05-09T10:44:57.167Z,3.40
2024-05-09T10:47:58.831Z,3.40
2024-05-09T10:51:00.771Z,3.30
2024-05-09T10:54:02.269Z,3.30
2024-05-09T10:57:04.134Z,3.80
2024-05-09T11:00:10.160Z,3.10
2024-05-09T11:03:14.371Z,3.50
2024-05-09T11:06:16.746Z,3.10
2024-05-09T11:09:18.228Z,3.30
2024-05-09T11:12:22.038Z,3.30
2024-05-09T11:15:24.937Z,3.30
2024-05-09T11:18:30.389Z,3.00
2024-05-09T11:21:34.936Z,3.40
2024-05-09T11:24:36.395Z,3.10
2024-05-09T11:27:37.901Z,3.20
2024-05-09T11:30:39.345Z,3.40
2024-05-09T11:33:44.187Z,3.20
2024-05-09T11:36:45.879Z,3.40
2024-05-09T11:39:47.332Z,3.10
2024-05-09T11:42:51.557Z,3.10
2024-05-09T11:45:56.893Z,3.30
2024-05-09T11:48:58.380Z,3.30
2024-05-09T11:51:59.846Z,3.10
2024-05-09T11:55:01.406Z,3.20
2024-05-09T11:58:03.372Z,3.60
2024-05-09T12:01:05.025Z,3.10
2024-05-09T12:04:06.778Z,3.30
2024-05-09T12:07:12.201Z,3.00
2024-05-09T12:10:19.595Z,3.20
2024-05-09T12:13:26.704Z,3.10
2024-05-09T12:16:28.560Z,4.10
2024-05-09T12:19:31.757Z,3.50
2024-05-09T12:22:33.168Z,3.10
2024-05-09T12:25:35.421Z,2.90
2024-05-09T12:28:36.878Z,3.50
2024-05-09T12:31:38.340Z,3.30
2024-05-09T12:34:39.864Z,3.20
2024-05-09T12:37:41.327Z,3.20
2024-05-09T12:40:42.934Z,3.20
2024-05-09T12:43:44.585Z,4.60
2024-05-09T12:46:45.978Z,3.60
2024-05-09T12:49:47.671Z,3.70
2024-05-09T12:52:49.110Z,3.10
2024-05-09T12:55:56.843Z,3.30
2024-05-09T12:59:01.745Z,3.30
2024-05-09T13:02:03.440Z,3.00
2024-05-09T13:05:05.448Z,3.30
2024-05-09T13:08:07.257Z,3.30
2024-05-09T13:11:08.863Z,3.20
2024-05-09T13:14:10.482Z,3.40
2024-05-09T13:17:11.914Z,3.10
2024-05-09T13:20:22.348Z,3.40
2024-05-09T13:23:27.650Z,3.60
2024-05-09T13:26:29.069Z,3.10
2024-05-09T13:29:30.457Z,3.20
2024-05-09T13:32:31.891Z,3.20
2024-05-09T13:35:33.433Z,3.00
2024-05-09T13:38:34.782Z,2.90
2024-05-09T13:41:36.156Z,2.90
2024-05-09T13:44:37.498Z,3.00
2024-05-09T13:47:39.244Z,3.30
2024-05-09T13:50:40.994Z,3.30
2024-05-09T13:53:42.364Z,3.30
2024-05-09T13:56:43.745Z,3.20
2024-05-09T13:59:45.182Z,3.20
2024-05-09T14:02:46.650Z,3.30
2024-05-09T14:05:48.854Z,3.10
2024-05-09T14:08:50.727Z,3.30
2024-05-09T14:11:52.166Z,3.40
2024-05-09T14:14:53.645Z,3.20
2024-05-09T14:17:55.090Z,3.40
2024-05-09T14:20:56.559Z,3.30
2024-05-09T14:23:57.932Z,3.50
2024-05-09T14:26:59.408Z,2.90
2024-05-09T14:30:00.829Z,3.10
2024-05-09T14:33:02.389Z,3.30
2024-05-09T14:36:03.988Z,3.10
2024-05-09T14:39:05.479Z,3.30
2024-05-09T14:42:06.955Z,3.10
2024-05-09T14:45:08.381Z,3.10
2024-05-09T14:48:10.478Z,3.20
2024-05-09T14:51:12.052Z,3.00
2024-05-09T14:54:13.637Z,3.10
2024-05-09T14:57:15.043Z,3.40
2024-05-09T15:00:24.801Z,3.10
2024-05-09T15:03:30.105Z,3.30
2024-05-09T15:06:31.965Z,3.40
2024-05-09T15:09:36.566Z,3.40
2024-05-09T15:12:38.136Z,3.20
2024-05-09T15:15:39.842Z,4.30
2024-05-09T15:18:43.787Z,3.60
2024-05-09T15:21:45.509Z,3.50
2024-05-09T15:24:47.133Z,3.80
2024-05-09T15:27:48.611Z,3.50
2024-05-09T15:30:50.135Z,3.90
2024-05-09T15:33:51.761Z,3.30
2024-05-09T15:36:53.250Z,3.50
2024-05-09T15:39:54.756Z,3.90
2024-05-09T15:42:56.174Z,3.80
2024-05-09T15:45:57.662Z,3.90
2024-05-09T15:48:59.378Z,4.20
2024-05-09T15:52:00.991Z,3.80
2024-05-09T15:55:02.435Z,4.20
2024-05-09T15:58:05.051Z,3.90
2024-05-09T16:01:07.004Z,3.80
2024-05-09T16:04:08.673Z,3.80
2024-05-09T16:07:10.330Z,4.80
2024-05-09T16:10:19.705Z,5.50
2024-05-09T16:13:24.264Z,5.20
2024-05-09T16:16:25.829Z,4.50
2024-05-09T16:19:27.366Z,3.90
2024-05-09T16:22:28.738Z,4.70
2024-05-09T16:25:30.141Z,3.80
2024-05-09T16:28:31.789Z,3.50
2024-05-09T16:31:33.329Z,3.50
2024-05-09T16:34:34.886Z,3.80
2024-05-09T16:37:36.384Z,4.10
2024-05-09T16:40:40.457Z,3.90
2024-05-09T16:43:42.907Z,4.30
2024-05-09T16:46:44.323Z,4.50
2024-05-09T16:49:45.912Z,4.80
2024-05-09T16:52:47.352Z,4.00
2024-05-09T16:55:48.745Z,4.20
2024-05-09T16:58:50.235Z,4.00
2024-05-09T17:01:51.686Z,3.90
2024-05-09T17:04:53.512Z,4.00
2024-05-09T17:07:55.950Z,3.70
2024-05-09T17:10:57.516Z,3.80
2024-05-09T17:13:59.352Z,3.80
2024-05-09T17:17:00.874Z,4.20
2024-05-09T17:20:03.683Z,3.90
2024-05-09T17:23:06.328Z,4.00
2024-05-09T17:26:08.160Z,4.00
2024-05-09T17:29:12.158Z,3.90
2024-05-09T17:32:13.955Z,4.20
2024-05-09T17:35:15.394Z,4.30
2024-05-09T17:38:17.156Z,4.50
2024-05-09T17:41:18.525Z,4.80
2024-05-09T17:44:19.897Z,4.80
2024-05-09T17:47:21.340Z,4.40
2024-05-09T17:50:30.256Z,4.80
2024-05-09T17:53:35.901Z,4.60
2024-05-09T17:56:37.288Z,4.20
2024-05-09T17:59:38.646Z,4.60
2024-05-09T18:02:40.023Z,4.50
2024-05-09T18:05:42.871Z,4.60
2024-05-09T18:08:45.533Z,5.30
2024-05-09T18:11:47.067Z,4.90
2024-05-09T18:14:48.930Z,4.70
2024-05-09T18:17:51.362Z,5.00
2024-05-09T18:20:52.822Z,4.90
2024-05-09T18:23:56.745Z,5.00
2024-05-09T18:26:59.439Z,4.70
2024-05-09T18:30:00.915Z,5.10
2024-05-09T18:33:02.511Z,5.40
2024-05-09T18:36:04.419Z,5.30
2024-05-09T18:39:06.183Z,4.90
2024-05-09T18:42:07.625Z,4.40
2024-05-09T18:45:09.365Z,4.90
2024-05-09T18:48:11.223Z,5.30
2024-05-09T18:51:12.846Z,5.00
2024-05-09T18:54:14.347Z,4.70
2024-05-09T18:57:15.929Z,5.90
2024-05-09T19:00:30.861Z,5.90
2024-05-09T19:03:36.990Z,7.00
2024-05-09T19:06:38.649Z,6.40
2024-05-09T19:09:40.193Z,6.30
2024-05-09T19:12:41.897Z,6.10
2024-05-09T19:15:44.355Z,5.60
2024-05-09T19:18:46.414Z,6.10
2024-05-09T19:21:48.000Z,6.30
2024-05-09T19:24:49.477Z,5.80
2024-05-09T19:27:50.987Z,6.60
2024-05-09T19:30:52.635Z,5.90
2024-05-09T19:33:54.348Z,6.70
2024-05-09T19:36:55.955Z,7.10
2024-05-09T19:39:57.870Z,7.80
2024-05-09T19:42:59.477Z,9.70
2024-05-09T19:46:01.383Z,7.30
2024-05-09T19:49:03.631Z,9.90
2024-05-09T19:52:05.297Z,8.40
2024-05-09T19:55:07.048Z,9.00
2024-05-09T19:58:09.733Z,9.60
2024-05-09T20:01:11.456Z,11.50
2024-05-09T20:04:13.068Z,9.70
2024-05-09T20:07:14.669Z,10.50
2024-05-09T20:10:23.379Z,8.90
2024-05-09T20:13:28.145Z,7.90
2024-05-09T20:16:29.676Z,8.80
2024-05-09T20:22:32.775Z,9.80
2024-05-09T20:25:34.256Z,8.70
2024-05-09T20:31:37.041Z,8.90
2024-05-09T20:37:40.712Z,10.20
2024-05-09T20:43:43.675Z,9.60
2024-05-09T20:49:49.585Z,13.70
2024-05-09T20:52:51.053Z,12.40
2024-05-09T20:58:53.949Z,9.90
2024-05-09T21:01:55.730Z,10.50
2024-05-09T21:04:57.620Z,11.60
2024-05-09T21:07:59.432Z,12.00
2024-05-09T21:11:09.573Z,11.70
2024-05-09T21:14:11.235Z,11.70
2024-05-09T21:17:12.884Z,11.40
2024-05-09T21:20:20.182Z,10.00
2024-05-09T21:23:25.215Z,11.00
2024-05-09T21:26:26.786Z,10.20
2024-05-09T21:32:29.928Z,9.70
2024-05-09T21:35:31.607Z,11.40
2024-05-09T21:41:34.371Z,9.70
2024-05-09T21:44:38.234Z,9.90
2024-05-09T21:47:39.872Z,9.60
2024-05-09T21:53:44.220Z,10.50
2024-05-09T21:59:52.699Z,11.30
2024-05-09T22:02:55.118Z,10.60
2024-05-09T22:05:56.808Z,10.60
2024-05-09T22:11:59.638Z,10.00
2024-05-09T22:18:03.005Z,9.10
2024-05-09T22:21:14.097Z,9.50
2024-05-09T22:24:15.538Z,10.90
2024-05-09T22:27:20.136Z,11.10
2024-05-09T22:30:27.902Z,9.60
2024-05-09T22:33:47.126Z,9.90
2024-05-09T22:36:52.048Z,10.00
2024-05-09T22:39:53.518Z,10.90
2024-05-09T22:42:58.000Z,10.40
2024-05-09T22:46:10.184Z,10.20
2024-05-09T22:49:14.951Z,10.70
2024-05-09T22:52:26.914Z,10.90
2024-05-09T22:55:28.529Z,11.20
2024-05-09T23:01:35.286Z,9.90
2024-05-09T23:04:38.126Z,13.70
2024-05-09T23:07:42.680Z,12.70
2024-05-09T23:10:44.615Z,12.80
2024-05-09T23:13:46.213Z,12.50
2024-05-09T23:19:54.561Z,13.60
2024-05-09T23:22:56.241Z,11.80
2024-05-09T23:25:57.840Z,12.90
2024-05-09T23:32:00.778Z,11.60
2024-05-09T23:35:11.146Z,12.10
2024-05-09T23:38:12.912Z,11.70
2024-05-09T23:41:14.456Z,11.90
2024-05-09T23:44:16.031Z,12.60
2024-05-09T23:47:17.705Z,13.70
2024-05-09T23:50:30.246Z,12.10
2024-05-09T23:53:45.436Z,12.00
2024-05-09T23:56:55.861Z,12.30
